sensor_id;sensor_type;location;lat;lon;timestamp;P1;durP1;ratioP1;P2;durP2;ratioP2
21806;SDS011;11065;50.786;7.840;2022-07-04T00:00:13;1.17;;;0.87;;
21806;SDS011;11065;50.786;7.840;2022-07-04T00:02:42;2.30;;;0.80;;
21806;SDS011;11065;50.786;7.840;2022-07-04T00:05:10;3.03;;;1.10;;
21806;SDS011;11065;50.786;7.840;2022-07-04T00:07:38;4.37;;;1.10;;
21806;SDS011;11065;50.786;7.840;2022-07-04T00:10:06;1.77;;;1.03;;
21806;SDS011;11065;50.786;7.840;2022-07-04T00:12:34;1.37;;;0.87;;
21806;SDS011;11065;50.786;7.840;2022-07-04T00:15:01;3.80;;;1.10;;
21806;SDS011;11065;50.786;7.840;2022-07-04T00:17:30;1.90;;;1.00;;
21806;SDS011;11065;50.786;7.840;2022-07-04T00:19:57;1.60;;;0.87;;
21806;SDS011;11065;50.786;7.840;2022-07-04T00:22:23;2.00;;;0.80;;
21806;SDS011;11065;50.786;7.840;2022-07-04T00:24:50;1.27;;;0.80;;
21806;SDS011;11065;50.786;7.840;2022-07-04T00:27:18;2.00;;;0.87;;
21806;SDS011;11065;50.786;7.840;2022-07-04T00:29:45;2.47;;;0.90;;
21806;SDS011;11065;50.786;7.840;2022-07-04T00:32:11;2.60;;;1.00;;
21806;SDS011;11065;50.786;7.840;2022-07-04T00:34:38;1.63;;;0.90;;
21806;SDS011;11065;50.786;7.840;2022-07-04T00:37:05;1.97;;;1.00;;
21806;SDS011;11065;50.786;7.840;2022-07-04T00:39:32;2.63;;;0.90;;
21806;SDS011;11065;50.786;7.840;2022-07-04T00:42:06;2.70;;;0.80;;
21806;SDS011;11065;50.786;7.840;2022-07-04T00:44:33;1.20;;;0.80;;
21806;SDS011;11065;50.786;7.840;2022-07-04T00:47:03;1.10;;;0.80;;
21806;SDS011;11065;50.786;7.840;2022-07-04T00:49:30;1.93;;;0.80;;
21806;SDS011;11065;50.786;7.840;2022-07-04T00:51:57;1.20;;;0.80;;
21806;SDS011;11065;50.786;7.840;2022-07-04T00:54:29;1.27;;;0.90;;
21806;SDS011;11065;50.786;7.840;2022-07-04T00:56:58;1.43;;;1.00;;
21806;SDS011;11065;50.786;7.840;2022-07-04T00:59:26;2.70;;;0.80;;
21806;SDS011;11065;50.786;7.840;2022-07-04T01:01:53;1.97;;;0.80;;
21806;SDS011;11065;50.786;7.840;2022-07-04T01:04:21;2.30;;;0.83;;
21806;SDS011;11065;50.786;7.840;2022-07-04T01:06:48;1.47;;;0.90;;
21806;SDS011;11065;50.786;7.840;2022-07-04T01:09:16;2.60;;;1.00;;
21806;SDS011;11065;50.786;7.840;2022-07-04T01:11:43;1.40;;;0.80;;
21806;SDS011;11065;50.786;7.840;2022-07-04T01:14:10;1.17;;;0.70;;
21806;SDS011;11065;50.786;7.840;2022-07-04T01:16:37;1.60;;;0.80;;
21806;SDS011;11065;50.786;7.840;2022-07-04T01:19:04;1.40;;;0.87;;
21806;SDS011;11065;50.786;7.840;2022-07-04T01:21:31;3.00;;;0.90;;
21806;SDS011;11065;50.786;7.840;2022-07-04T01:23:59;1.57;;;0.90;;
21806;SDS011;11065;50.786;7.840;2022-07-04T01:26:27;2.40;;;0.90;;
21806;SDS011;11065;50.786;7.840;2022-07-04T01:28:54;1.60;;;0.90;;
21806;SDS011;11065;50.786;7.840;2022-07-04T01:31:21;1.73;;;0.80;;
21806;SDS011;11065;50.786;7.840;2022-07-04T01:33:48;1.23;;;0.83;;
21806;SDS011;11065;50.786;7.840;2022-07-04T01:36:15;1.43;;;0.77;;
21806;SDS011;11065;50.786;7.840;2022-07-04T01:38:42;1.77;;;0.80;;
21806;SDS011;11065;50.786;7.840;2022-07-04T01:41:09;2.87;;;0.90;;
21806;SDS011;11065;50.786;7.840;2022-07-04T01:43:36;2.50;;;0.83;;
21806;SDS011;11065;50.786;7.840;2022-07-04T01:46:02;1.03;;;0.80;;
21806;SDS011;11065;50.786;7.840;2022-07-04T01:48:29;1.23;;;0.90;;
21806;SDS011;11065;50.786;7.840;2022-07-04T01:50:56;1.23;;;0.80;;
21806;SDS011;11065;50.786;7.840;2022-07-04T01:53:23;1.67;;;1.00;;
21806;SDS011;11065;50.786;7.840;2022-07-04T01:55:50;1.20;;;0.80;;
21806;SDS011;11065;50.786;7.840;2022-07-04T01:58:17;1.50;;;1.00;;
21806;SDS011;11065;50.786;7.840;2022-07-04T02:00:44;3.73;;;1.00;;
21806;SDS011;11065;50.786;7.840;2022-07-04T02:03:30;1.40;;;0.80;;
21806;SDS011;11065;50.786;7.840;2022-07-04T02:05:56;1.47;;;0.77;;
21806;SDS011;11065;50.786;7.840;2022-07-04T02:08:23;1.87;;;0.93;;
21806;SDS011;11065;50.786;7.840;2022-07-04T02:11:10;1.83;;;0.80;;
21806;SDS011;11065;50.786;7.840;2022-07-04T02:13:37;1.63;;;0.80;;
21806;SDS011;11065;50.786;7.840;2022-07-04T02:16:04;1.70;;;0.90;;
21806;SDS011;11065;50.786;7.840;2022-07-04T02:18:31;1.90;;;0.87;;
21806;SDS011;11065;50.786;7.840;2022-07-04T02:20:58;1.40;;;0.70;;
21806;SDS011;11065;50.786;7.840;2022-07-04T02:23:24;1.57;;;0.83;;
21806;SDS011;11065;50.786;7.840;2022-07-04T02:25:51;1.73;;;0.90;;
21806;SDS011;11065;50.786;7.840;2022-07-04T02:28:18;1.50;;;0.80;;
21806;SDS011;11065;50.786;7.840;2022-07-04T02:30:45;2.07;;;0.90;;
21806;SDS011;11065;50.786;7.840;2022-07-04T02:33:12;2.93;;;0.80;;
21806;SDS011;11065;50.786;7.840;2022-07-04T02:35:39;1.03;;;0.77;;
21806;SDS011;11065;50.786;7.840;2022-07-04T02:38:06;1.70;;;0.90;;
21806;SDS011;11065;50.786;7.840;2022-07-04T02:40:33;1.27;;;0.87;;
21806;SDS011;11065;50.786;7.840;2022-07-04T02:42:59;2.63;;;0.83;;
21806;SDS011;11065;50.786;7.840;2022-07-04T02:45:26;2.73;;;0.97;;
21806;SDS011;11065;50.786;7.840;2022-07-04T02:47:53;3.93;;;0.80;;
21806;SDS011;11065;50.786;7.840;2022-07-04T02:50:20;1.07;;;0.83;;
21806;SDS011;11065;50.786;7.840;2022-07-04T02:52:47;1.53;;;1.00;;
21806;SDS011;11065;50.786;7.840;2022-07-04T02:55:13;2.83;;;0.97;;
21806;SDS011;11065;50.786;7.840;2022-07-04T02:57:40;2.80;;;0.83;;
21806;SDS011;11065;50.786;7.840;2022-07-04T03:00:07;2.47;;;1.30;;
21806;SDS011;11065;50.786;7.840;2022-07-04T03:02:35;2.33;;;1.30;;
21806;SDS011;11065;50.786;7.840;2022-07-04T03:05:02;2.13;;;1.17;;
21806;SDS011;11065;50.786;7.840;2022-07-04T03:07:29;2.77;;;1.10;;
21806;SDS011;11065;50.786;7.840;2022-07-04T03:09:56;1.90;;;1.50;;
21806;SDS011;11065;50.786;7.840;2022-07-04T03:12:23;2.23;;;1.30;;
21806;SDS011;11065;50.786;7.840;2022-07-04T03:14:50;1.10;;;0.90;;
21806;SDS011;11065;50.786;7.840;2022-07-04T03:17:19;1.03;;;0.90;;
21806;SDS011;11065;50.786;7.840;2022-07-04T03:19:46;2.20;;;1.30;;
21806;SDS011;11065;50.786;7.840;2022-07-04T03:22:13;2.43;;;1.00;;
21806;SDS011;11065;50.786;7.840;2022-07-04T03:24:40;2.53;;;1.30;;
21806;SDS011;11065;50.786;7.840;2022-07-04T03:27:07;1.77;;;1.13;;
21806;SDS011;11065;50.786;7.840;2022-07-04T03:29:34;1.47;;;1.00;;
21806;SDS011;11065;50.786;7.840;2022-07-04T03:32:01;0.97;;;0.87;;
21806;SDS011;11065;50.786;7.840;2022-07-04T03:34:28;2.57;;;1.10;;
21806;SDS011;11065;50.786;7.840;2022-07-04T03:36:55;3.93;;;1.30;;
21806;SDS011;11065;50.786;7.840;2022-07-04T03:39:22;1.87;;;0.83;;
21806;SDS011;11065;50.786;7.840;2022-07-04T03:41:49;2.27;;;1.10;;
21806;SDS011;11065;50.786;7.840;2022-07-04T03:44:16;3.00;;;1.10;;
21806;SDS011;11065;50.786;7.840;2022-07-04T03:46:42;2.60;;;1.53;;
21806;SDS011;11065;50.786;7.840;2022-07-04T03:49:09;1.17;;;0.80;;
21806;SDS011;11065;50.786;7.840;2022-07-04T03:51:36;1.30;;;0.90;;
21806;SDS011;11065;50.786;7.840;2022-07-04T03:54:03;1.83;;;0.97;;
21806;SDS011;11065;50.786;7.840;2022-07-04T03:56:30;2.50;;;1.00;;
21806;SDS011;11065;50.786;7.840;2022-07-04T03:58:56;1.27;;;1.00;;
21806;SDS011;11065;50.786;7.840;2022-07-04T04:01:23;1.63;;;0.90;;
21806;SDS011;11065;50.786;7.840;2022-07-04T04:03:50;1.90;;;0.90;;
21806;SDS011;11065;50.786;7.840;2022-07-04T04:06:36;3.27;;;0.90;;
21806;SDS011;11065;50.786;7.840;2022-07-04T04:09:02;1.20;;;0.90;;
21806;SDS011;11065;50.786;7.840;2022-07-04T04:11:35;1.67;;;0.80;;
21806;SDS011;11065;50.786;7.840;2022-07-04T04:14:03;2.77;;;1.30;;
21806;SDS011;11065;50.786;7.840;2022-07-04T04:16:30;3.43;;;1.10;;
21806;SDS011;11065;50.786;7.840;2022-07-04T04:18:57;4.17;;;1.13;;
21806;SDS011;11065;50.786;7.840;2022-07-04T04:21:24;2.17;;;1.00;;
21806;SDS011;11065;50.786;7.840;2022-07-04T04:23:51;2.57;;;1.07;;
21806;SDS011;11065;50.786;7.840;2022-07-04T04:26:17;1.43;;;0.90;;
21806;SDS011;11065;50.786;7.840;2022-07-04T04:28:44;1.50;;;0.90;;
21806;SDS011;11065;50.786;7.840;2022-07-04T04:31:11;1.40;;;0.90;;
21806;SDS011;11065;50.786;7.840;2022-07-04T04:33:38;2.20;;;1.00;;
21806;SDS011;11065;50.786;7.840;2022-07-04T04:36:06;1.70;;;1.00;;
21806;SDS011;11065;50.786;7.840;2022-07-04T04:38:33;2.10;;;1.00;;
21806;SDS011;11065;50.786;7.840;2022-07-04T04:41:00;2.03;;;1.00;;
21806;SDS011;11065;50.786;7.840;2022-07-04T04:43:27;2.70;;;1.30;;
21806;SDS011;11065;50.786;7.840;2022-07-04T04:45:54;1.90;;;1.10;;
21806;SDS011;11065;50.786;7.840;2022-07-04T04:48:21;1.40;;;1.17;;
21806;SDS011;11065;50.786;7.840;2022-07-04T04:50:47;3.23;;;1.40;;
21806;SDS011;11065;50.786;7.840;2022-07-04T04:53:14;1.83;;;1.30;;
21806;SDS011;11065;50.786;7.840;2022-07-04T04:55:41;2.40;;;1.23;;
21806;SDS011;11065;50.786;7.840;2022-07-04T04:58:08;3.17;;;1.43;;
21806;SDS011;11065;50.786;7.840;2022-07-04T05:00:35;1.77;;;1.20;;
21806;SDS011;11065;50.786;7.840;2022-07-04T05:03:01;2.03;;;1.30;;
21806;SDS011;11065;50.786;7.840;2022-07-04T05:05:28;2.20;;;1.47;;
21806;SDS011;11065;50.786;7.840;2022-07-04T05:07:55;2.87;;;1.40;;
21806;SDS011;11065;50.786;7.840;2022-07-04T05:10:22;3.00;;;1.67;;
21806;SDS011;11065;50.786;7.840;2022-07-04T05:12:49;2.63;;;1.43;;
21806;SDS011;11065;50.786;7.840;2022-07-04T05:15:16;2.40;;;1.50;;
21806;SDS011;11065;50.786;7.840;2022-07-04T05:17:43;2.30;;;1.53;;
21806;SDS011;11065;50.786;7.840;2022-07-04T05:20:10;4.00;;;1.50;;
21806;SDS011;11065;50.786;7.840;2022-07-04T05:22:37;3.10;;;1.43;;
21806;SDS011;11065;50.786;7.840;2022-07-04T05:25:04;1.90;;;1.50;;
21806;SDS011;11065;50.786;7.840;2022-07-04T05:27:32;1.73;;;1.40;;
21806;SDS011;11065;50.786;7.840;2022-07-04T05:29:59;3.40;;;1.40;;
21806;SDS011;11065;50.786;7.840;2022-07-04T05:32:26;2.40;;;1.50;;
21806;SDS011;11065;50.786;7.840;2022-07-04T05:34:53;1.90;;;1.20;;
21806;SDS011;11065;50.786;7.840;2022-07-04T05:37:20;2.30;;;1.33;;
21806;SDS011;11065;50.786;7.840;2022-07-04T05:39:47;2.40;;;1.60;;
21806;SDS011;11065;50.786;7.840;2022-07-04T05:42:15;5.10;;;1.90;;
21806;SDS011;11065;50.786;7.840;2022-07-04T05:44:42;2.40;;;1.50;;
21806;SDS011;11065;50.786;7.840;2022-07-04T05:47:10;3.00;;;1.40;;
21806;SDS011;11065;50.786;7.840;2022-07-04T05:49:37;2.87;;;1.50;;
21806;SDS011;11065;50.786;7.840;2022-07-04T05:52:04;4.03;;;1.50;;
21806;SDS011;11065;50.786;7.840;2022-07-04T05:54:31;2.40;;;1.53;;
21806;SDS011;11065;50.786;7.840;2022-07-04T05:56:59;3.70;;;1.37;;
21806;SDS011;11065;50.786;7.840;2022-07-04T05:59:25;4.60;;;1.67;;
21806;SDS011;11065;50.786;7.840;2022-07-04T06:01:52;3.10;;;1.70;;
21806;SDS011;11065;50.786;7.840;2022-07-04T06:04:19;3.87;;;1.57;;
21806;SDS011;11065;50.786;7.840;2022-07-04T06:06:46;2.47;;;1.20;;
21806;SDS011;11065;50.786;7.840;2022-07-04T06:09:13;2.27;;;1.20;;
21806;SDS011;11065;50.786;7.840;2022-07-04T06:11:42;3.17;;;1.40;;
21806;SDS011;11065;50.786;7.840;2022-07-04T06:14:09;1.97;;;1.30;;
21806;SDS011;11065;50.786;7.840;2022-07-04T06:16:36;3.00;;;1.23;;
21806;SDS011;11065;50.786;7.840;2022-07-04T06:19:03;2.63;;;1.30;;
21806;SDS011;11065;50.786;7.840;2022-07-04T06:21:30;3.00;;;1.40;;
21806;SDS011;11065;50.786;7.840;2022-07-04T06:23:57;2.07;;;1.40;;
21806;SDS011;11065;50.786;7.840;2022-07-04T06:26:24;4.07;;;1.63;;
21806;SDS011;11065;50.786;7.840;2022-07-04T06:28:51;2.13;;;1.20;;
21806;SDS011;11065;50.786;7.840;2022-07-04T06:31:18;3.17;;;1.50;;
21806;SDS011;11065;50.786;7.840;2022-07-04T06:33:45;4.93;;;1.70;;
21806;SDS011;11065;50.786;7.840;2022-07-04T06:36:30;3.07;;;1.40;;
21806;SDS011;11065;50.786;7.840;2022-07-04T06:38:57;3.53;;;1.23;;
21806;SDS011;11065;50.786;7.840;2022-07-04T06:41:24;1.87;;;1.17;;
21806;SDS011;11065;50.786;7.840;2022-07-04T06:43:51;3.10;;;1.40;;
21806;SDS011;11065;50.786;7.840;2022-07-04T06:46:18;3.27;;;1.40;;
21806;SDS011;11065;50.786;7.840;2022-07-04T06:48:45;3.30;;;1.07;;
21806;SDS011;11065;50.786;7.840;2022-07-04T06:51:12;2.93;;;1.10;;
21806;SDS011;11065;50.786;7.840;2022-07-04T06:53:40;3.63;;;1.13;;
21806;SDS011;11065;50.786;7.840;2022-07-04T06:56:08;3.00;;;1.40;;
21806;SDS011;11065;50.786;7.840;2022-07-04T06:58:35;2.90;;;1.30;;
21806;SDS011;11065;50.786;7.840;2022-07-04T07:01:01;1.90;;;1.13;;
21806;SDS011;11065;50.786;7.840;2022-07-04T07:03:28;2.00;;;1.10;;
21806;SDS011;11065;50.786;7.840;2022-07-04T07:05:55;2.27;;;1.30;;
21806;SDS011;11065;50.786;7.840;2022-07-04T07:08:25;3.13;;;1.50;;
21806;SDS011;11065;50.786;7.840;2022-07-04T07:10:53;4.93;;;1.40;;
21806;SDS011;11065;50.786;7.840;2022-07-04T07:13:20;2.13;;;1.40;;
21806;SDS011;11065;50.786;7.840;2022-07-04T07:15:46;2.90;;;1.03;;
21806;SDS011;11065;50.786;7.840;2022-07-04T07:18:13;2.37;;;1.00;;
21806;SDS011;11065;50.786;7.840;2022-07-04T07:20:40;1.73;;;0.87;;
21806;SDS011;11065;50.786;7.840;2022-07-04T07:23:07;1.20;;;0.77;;
21806;SDS011;11065;50.786;7.840;2022-07-04T07:25:34;1.53;;;0.70;;
21806;SDS011;11065;50.786;7.840;2022-07-04T07:28:01;1.60;;;0.70;;
21806;SDS011;11065;50.786;7.840;2022-07-04T07:30:28;1.33;;;0.80;;
21806;SDS011;11065;50.786;7.840;2022-07-04T07:32:55;1.67;;;0.70;;
21806;SDS011;11065;50.786;7.840;2022-07-04T07:35:22;2.20;;;0.80;;
21806;SDS011;11065;50.786;7.840;2022-07-04T07:37:49;1.90;;;0.70;;
21806;SDS011;11065;50.786;7.840;2022-07-04T07:40:16;0.60;;;0.47;;
21806;SDS011;11065;50.786;7.840;2022-07-04T07:42:43;1.63;;;0.70;;
21806;SDS011;11065;50.786;7.840;2022-07-04T07:45:10;1.77;;;0.70;;
21806;SDS011;11065;50.786;7.840;2022-07-04T07:47:36;4.60;;;1.37;;
21806;SDS011;11065;50.786;7.840;2022-07-04T07:50:04;1.20;;;0.60;;
21806;SDS011;11065;50.786;7.840;2022-07-04T07:52:31;1.43;;;0.70;;
21806;SDS011;11065;50.786;7.840;2022-07-04T07:54:58;3.30;;;0.60;;
21806;SDS011;11065;50.786;7.840;2022-07-04T07:57:27;1.07;;;0.60;;
21806;SDS011;11065;50.786;7.840;2022-07-04T07:59:55;1.33;;;0.60;;
21806;SDS011;11065;50.786;7.840;2022-07-04T08:02:22;0.70;;;0.60;;
21806;SDS011;11065;50.786;7.840;2022-07-04T08:05:10;2.40;;;0.80;;
21806;SDS011;11065;50.786;7.840;2022-07-04T08:07:38;1.60;;;0.90;;
21806;SDS011;11065;50.786;7.840;2022-07-04T08:10:05;2.40;;;0.60;;
21806;SDS011;11065;50.786;7.840;2022-07-04T08:12:33;1.33;;;0.50;;
21806;SDS011;11065;50.786;7.840;2022-07-04T08:15:00;1.43;;;0.50;;
21806;SDS011;11065;50.786;7.840;2022-07-04T08:17:32;0.77;;;0.50;;
21806;SDS011;11065;50.786;7.840;2022-07-04T08:20:01;1.23;;;0.50;;
21806;SDS011;11065;50.786;7.840;2022-07-04T08:22:29;0.97;;;0.40;;
21806;SDS011;11065;50.786;7.840;2022-07-04T08:24:56;0.73;;;0.30;;
21806;SDS011;11065;50.786;7.840;2022-07-04T08:27:23;1.10;;;0.50;;
21806;SDS011;11065;50.786;7.840;2022-07-04T08:29:57;0.87;;;0.60;;
21806;SDS011;11065;50.786;7.840;2022-07-04T08:32:25;1.73;;;0.60;;
21806;SDS011;11065;50.786;7.840;2022-07-04T08:34:52;1.47;;;0.60;;
21806;SDS011;11065;50.786;7.840;2022-07-04T08:37:21;1.47;;;0.60;;
21806;SDS011;11065;50.786;7.840;2022-07-04T08:39:48;2.43;;;0.70;;
21806;SDS011;11065;50.786;7.840;2022-07-04T08:42:18;1.33;;;0.70;;
21806;SDS011;11065;50.786;7.840;2022-07-04T08:44:54;1.30;;;0.57;;
21806;SDS011;11065;50.786;7.840;2022-07-04T08:47:22;1.10;;;0.50;;
21806;SDS011;11065;50.786;7.840;2022-07-04T08:50:33;1.13;;;0.50;;
21806;SDS011;11065;50.786;7.840;2022-07-04T08:52:56;1.53;;;0.60;;
21806;SDS011;11065;50.786;7.840;2022-07-04T08:55:45;0.70;;;0.53;;
21806;SDS011;11065;50.786;7.840;2022-07-04T08:58:32;0.50;;;0.40;;
21806;SDS011;11065;50.786;7.840;2022-07-04T09:01:06;1.10;;;0.63;;
21806;SDS011;11065;50.786;7.840;2022-07-04T09:03:41;2.30;;;0.70;;
21806;SDS011;11065;50.786;7.840;2022-07-04T09:06:10;0.97;;;0.43;;
21806;SDS011;11065;50.786;7.840;2022-07-04T09:08:38;0.83;;;0.43;;
21806;SDS011;11065;50.786;7.840;2022-07-04T09:11:06;1.73;;;0.70;;
21806;SDS011;11065;50.786;7.840;2022-07-04T09:13:33;2.00;;;0.60;;
21806;SDS011;11065;50.786;7.840;2022-07-04T09:16:01;1.13;;;0.50;;
21806;SDS011;11065;50.786;7.840;2022-07-04T09:18:29;1.37;;;0.60;;
21806;SDS011;11065;50.786;7.840;2022-07-04T09:21:01;0.60;;;0.50;;
21806;SDS011;11065;50.786;7.840;2022-07-04T09:23:38;1.93;;;0.47;;
21806;SDS011;11065;50.786;7.840;2022-07-04T09:28:44;0.73;;;0.50;;
21806;SDS011;11065;50.786;7.840;2022-07-04T09:31:20;1.67;;;0.43;;
21806;SDS011;11065;50.786;7.840;2022-07-04T09:36:21;2.23;;;0.50;;
21806;SDS011;11065;50.786;7.840;2022-07-04T09:44:42;1.15;;;0.40;;
21806;SDS011;11065;50.786;7.840;2022-07-04T09:52:49;0.63;;;0.43;;
21806;SDS011;11065;50.786;7.840;2022-07-04T09:55:22;1.67;;;0.38;;
21806;SDS011;11065;50.786;7.840;2022-07-04T09:57:50;0.63;;;0.52;;
21806;SDS011;11065;50.786;7.840;2022-07-04T10:03:15;0.73;;;0.40;;
21806;SDS011;11065;50.786;7.840;2022-07-04T10:05:46;1.08;;;0.45;;
21806;SDS011;11065;50.786;7.840;2022-07-04T10:08:29;0.80;;;0.35;;
21806;SDS011;11065;50.786;7.840;2022-07-04T10:10:57;1.33;;;0.30;;
21806;SDS011;11065;50.786;7.840;2022-07-04T10:13:25;0.70;;;0.40;;
21806;SDS011;11065;50.786;7.840;2022-07-04T10:15:52;5.30;;;0.88;;
21806;SDS011;11065;50.786;7.840;2022-07-04T10:18:20;0.50;;;0.20;;
21806;SDS011;11065;50.786;7.840;2022-07-04T10:20:48;0.65;;;0.30;;
21806;SDS011;11065;50.786;7.840;2022-07-04T10:23:16;0.75;;;0.40;;
21806;SDS011;11065;50.786;7.840;2022-07-04T10:25:47;0.50;;;0.30;;
21806;SDS011;11065;50.786;7.840;2022-07-04T10:28:15;0.90;;;0.50;;
21806;SDS011;11065;50.786;7.840;2022-07-04T10:30:45;0.70;;;0.40;;
21806;SDS011;11065;50.786;7.840;2022-07-04T10:33:15;0.65;;;0.35;;
21806;SDS011;11065;50.786;7.840;2022-07-04T10:35:52;0.82;;;0.45;;
21806;SDS011;11065;50.786;7.840;2022-07-04T10:38:31;1.42;;;0.40;;
21806;SDS011;11065;50.786;7.840;2022-07-04T10:48:48;1.98;;;0.40;;
21806;SDS011;11065;50.786;7.840;2022-07-04T10:51:42;2.05;;;0.30;;
21806;SDS011;11065;50.786;7.840;2022-07-04T10:54:32;0.70;;;0.30;;
21806;SDS011;11065;50.786;7.840;2022-07-04T10:59:41;0.85;;;0.30;;
21806;SDS011;11065;50.786;7.840;2022-07-04T11:02:33;0.93;;;0.40;;
21806;SDS011;11065;50.786;7.840;2022-07-04T11:05:01;0.90;;;0.32;;
21806;SDS011;11065;50.786;7.840;2022-07-04T11:17:51;0.90;;;0.40;;
21806;SDS011;11065;50.786;7.840;2022-07-04T11:20:19;1.10;;;0.40;;
21806;SDS011;11065;50.786;7.840;2022-07-04T11:22:46;1.40;;;0.50;;
21806;SDS011;11065;50.786;7.840;2022-07-04T11:25:13;0.85;;;0.38;;
21806;SDS011;11065;50.786;7.840;2022-07-04T11:27:40;1.48;;;0.40;;
21806;SDS011;11065;50.786;7.840;2022-07-04T11:30:08;1.58;;;0.68;;
21806;SDS011;11065;50.786;7.840;2022-07-04T11:32:41;1.20;;;0.40;;
21806;SDS011;11065;50.786;7.840;2022-07-04T11:35:08;1.33;;;0.40;;
21806;SDS011;11065;50.786;7.840;2022-07-04T11:37:35;1.95;;;0.40;;
21806;SDS011;11065;50.786;7.840;2022-07-04T11:40:02;1.00;;;0.45;;
21806;SDS011;11065;50.786;7.840;2022-07-04T11:43:03;0.93;;;0.40;;
21806;SDS011;11065;50.786;7.840;2022-07-04T11:45:49;0.47;;;0.30;;
21806;SDS011;11065;50.786;7.840;2022-07-04T11:48:21;1.08;;;0.40;;
21806;SDS011;11065;50.786;7.840;2022-07-04T11:50:48;2.17;;;0.38;;
21806;SDS011;11065;50.786;7.840;2022-07-04T11:53:18;0.68;;;0.30;;
21806;SDS011;11065;50.786;7.840;2022-07-04T11:55:56;0.90;;;0.55;;
21806;SDS011;11065;50.786;7.840;2022-07-04T11:58:42;1.52;;;0.50;;
21806;SDS011;11065;50.786;7.840;2022-07-04T12:01:10;0.85;;;0.40;;
21806;SDS011;11065;50.786;7.840;2022-07-04T12:03:38;0.60;;;0.50;;
21806;SDS011;11065;50.786;7.840;2022-07-04T12:06:05;2.30;;;0.50;;
21806;SDS011;11065;50.786;7.840;2022-07-04T12:08:32;2.00;;;0.65;;
21806;SDS011;11065;50.786;7.840;2022-07-04T12:10:59;0.47;;;0.30;;
21806;SDS011;11065;50.786;7.840;2022-07-04T12:13:25;1.13;;;0.55;;
21806;SDS011;11065;50.786;7.840;2022-07-04T12:15:53;1.52;;;0.40;;
21806;SDS011;11065;50.786;7.840;2022-07-04T12:18:24;0.68;;;0.40;;
21806;SDS011;11065;50.786;7.840;2022-07-04T12:20:54;1.08;;;0.32;;
21806;SDS011;11065;50.786;7.840;2022-07-04T12:23:36;2.00;;;0.47;;
21806;SDS011;11065;50.786;7.840;2022-07-04T12:26:23;0.55;;;0.45;;
21806;SDS011;11065;50.786;7.840;2022-07-04T12:28:50;1.45;;;0.40;;
21806;SDS011;11065;50.786;7.840;2022-07-04T12:31:17;2.28;;;0.43;;
21806;SDS011;11065;50.786;7.840;2022-07-04T12:33:54;1.90;;;0.32;;
21806;SDS011;11065;50.786;7.840;2022-07-04T12:36:24;1.13;;;0.60;;
21806;SDS011;11065;50.786;7.840;2022-07-04T12:38:51;1.42;;;0.40;;
21806;SDS011;11065;50.786;7.840;2022-07-04T12:41:18;1.75;;;0.88;;
21806;SDS011;11065;50.786;7.840;2022-07-04T12:43:56;0.45;;;0.40;;
21806;SDS011;11065;50.786;7.840;2022-07-04T12:48:52;0.75;;;0.47;;
21806;SDS011;11065;50.786;7.840;2022-07-04T12:51:21;0.85;;;0.40;;
21806;SDS011;11065;50.786;7.840;2022-07-04T12:53:53;0.85;;;0.30;;
21806;SDS011;11065;50.786;7.840;2022-07-04T12:59:03;0.75;;;0.50;;
21806;SDS011;11065;50.786;7.840;2022-07-04T13:01:38;0.77;;;0.40;;
21806;SDS011;11065;50.786;7.840;2022-07-04T13:04:07;1.13;;;0.38;;
21806;SDS011;11065;50.786;7.840;2022-07-04T13:06:35;0.65;;;0.35;;
21806;SDS011;11065;50.786;7.840;2022-07-04T13:09:03;1.02;;;0.30;;
21806;SDS011;11065;50.786;7.840;2022-07-04T13:11:32;1.25;;;0.50;;
21806;SDS011;11065;50.786;7.840;2022-07-04T13:14:18;1.45;;;0.60;;
21806;SDS011;11065;50.786;7.840;2022-07-04T13:16:45;2.40;;;0.60;;
21806;SDS011;11065;50.786;7.840;2022-07-04T13:19:12;0.80;;;0.32;;
21806;SDS011;11065;50.786;7.840;2022-07-04T13:21:39;1.17;;;0.47;;
21806;SDS011;11065;50.786;7.840;2022-07-04T13:24:06;1.13;;;0.47;;
21806;SDS011;11065;50.786;7.840;2022-07-04T13:26:33;1.13;;;0.43;;
21806;SDS011;11065;50.786;7.840;2022-07-04T13:29:00;1.70;;;0.45;;
21806;SDS011;11065;50.786;7.840;2022-07-04T13:31:27;0.80;;;0.50;;
21806;SDS011;11065;50.786;7.840;2022-07-04T13:33:54;1.52;;;0.60;;
21806;SDS011;11065;50.786;7.840;2022-07-04T13:36:22;1.30;;;0.55;;
21806;SDS011;11065;50.786;7.840;2022-07-04T13:38:50;1.10;;;0.50;;
21806;SDS011;11065;50.786;7.840;2022-07-04T13:41:31;1.52;;;0.63;;
21806;SDS011;11065;50.786;7.840;2022-07-04T13:44:02;0.55;;;0.40;;
21806;SDS011;11065;50.786;7.840;2022-07-04T13:46:30;1.25;;;0.52;;
21806;SDS011;11065;50.786;7.840;2022-07-04T13:49:04;1.35;;;0.68;;
21806;SDS011;11065;50.786;7.840;2022-07-04T13:51:39;1.60;;;0.57;;
21806;SDS011;11065;50.786;7.840;2022-07-04T13:54:07;1.00;;;0.45;;
21806;SDS011;11065;50.786;7.840;2022-07-04T13:56:34;1.27;;;0.52;;
21806;SDS011;11065;50.786;7.840;2022-07-04T13:59:01;1.65;;;0.57;;
21806;SDS011;11065;50.786;7.840;2022-07-04T14:01:29;2.50;;;0.38;;
21806;SDS011;11065;50.786;7.840;2022-07-04T14:03:56;0.82;;;0.38;;
21806;SDS011;11065;50.786;7.840;2022-07-04T14:06:23;1.17;;;0.43;;
21806;SDS011;11065;50.786;7.840;2022-07-04T14:08:50;1.58;;;0.50;;
21806;SDS011;11065;50.786;7.840;2022-07-04T14:11:17;2.33;;;0.60;;
21806;SDS011;11065;50.786;7.840;2022-07-04T14:13:44;1.63;;;0.60;;
21806;SDS011;11065;50.786;7.840;2022-07-04T14:16:11;0.90;;;0.43;;
21806;SDS011;11065;50.786;7.840;2022-07-04T14:18:38;1.13;;;0.40;;
21806;SDS011;11065;50.786;7.840;2022-07-04T14:21:05;1.88;;;0.50;;
21806;SDS011;11065;50.786;7.840;2022-07-04T14:23:31;1.20;;;0.40;;
21806;SDS011;11065;50.786;7.840;2022-07-04T14:26:08;1.45;;;0.40;;
21806;SDS011;11065;50.786;7.840;2022-07-04T14:28:37;1.17;;;0.60;;
21806;SDS011;11065;50.786;7.840;2022-07-04T14:31:04;1.95;;;0.60;;
21806;SDS011;11065;50.786;7.840;2022-07-04T14:33:32;1.45;;;0.40;;
21806;SDS011;11065;50.786;7.840;2022-07-04T14:36:00;1.83;;;0.55;;
21806;SDS011;11065;50.786;7.840;2022-07-04T14:38:27;1.15;;;0.52;;
21806;SDS011;11065;50.786;7.840;2022-07-04T14:40:54;0.80;;;0.50;;
21806;SDS011;11065;50.786;7.840;2022-07-04T14:43:21;1.55;;;0.40;;
21806;SDS011;11065;50.786;7.840;2022-07-04T14:45:48;1.38;;;0.40;;
21806;SDS011;11065;50.786;7.840;2022-07-04T14:48:15;1.20;;;0.60;;
21806;SDS011;11065;50.786;7.840;2022-07-04T14:50:42;1.05;;;0.50;;
21806;SDS011;11065;50.786;7.840;2022-07-04T14:53:09;1.88;;;0.60;;
21806;SDS011;11065;50.786;7.840;2022-07-04T14:55:37;1.40;;;0.70;;
21806;SDS011;11065;50.786;7.840;2022-07-04T14:58:04;1.42;;;0.50;;
21806;SDS011;11065;50.786;7.840;2022-07-04T15:00:31;1.15;;;0.45;;
21806;SDS011;11065;50.786;7.840;2022-07-04T15:02:58;1.40;;;0.50;;
21806;SDS011;11065;50.786;7.840;2022-07-04T15:05:25;1.52;;;0.57;;
21806;SDS011;11065;50.786;7.840;2022-07-04T15:07:51;0.88;;;0.50;;
21806;SDS011;11065;50.786;7.840;2022-07-04T15:10:22;1.48;;;0.63;;
21806;SDS011;11065;50.786;7.840;2022-07-04T15:13:09;2.90;;;0.75;;
21806;SDS011;11065;50.786;7.840;2022-07-04T15:15:36;0.52;;;0.30;;
21806;SDS011;11065;50.786;7.840;2022-07-04T15:18:10;1.20;;;0.50;;
21806;SDS011;11065;50.786;7.840;2022-07-04T15:20:40;1.58;;;0.60;;
21806;SDS011;11065;50.786;7.840;2022-07-04T15:23:25;0.82;;;0.47;;
21806;SDS011;11065;50.786;7.840;2022-07-04T15:26:10;1.15;;;0.47;;
21806;SDS011;11065;50.786;7.840;2022-07-04T15:28:37;0.95;;;0.40;;
21806;SDS011;11065;50.786;7.840;2022-07-04T15:31:04;1.42;;;0.50;;
21806;SDS011;11065;50.786;7.840;2022-07-04T15:33:31;0.70;;;0.40;;
21806;SDS011;11065;50.786;7.840;2022-07-04T15:35:58;0.90;;;0.50;;
21806;SDS011;11065;50.786;7.840;2022-07-04T15:38:25;1.38;;;0.60;;
21806;SDS011;11065;50.786;7.840;2022-07-04T15:40:52;1.63;;;0.70;;
21806;SDS011;11065;50.786;7.840;2022-07-04T15:43:19;2.17;;;0.60;;